createdAt,value
2022-09-12T00:01:39.265Z,101252.09
2022-09-12T00:08:41.049Z,101242.72
2022-09-12T00:15:43.471Z,101250.34
2022-09-12T00:22:45.056Z,101238.25
2022-09-12T00:29:46.624Z,101234.34
2022-09-12T00:36:48.186Z,101233.16
2022-09-12T00:43:54.438Z,101239.13
2022-09-12T00:50:55.981Z,101237.06
2022-09-12T00:58:00.064Z,101238.25
2022-09-12T01:05:01.620Z,101238.56
2022-09-12T01:12:03.720Z,101236.25
2022-09-12T01:19:08.182Z,101232.25
2022-09-12T01:26:43.108Z,101238.94
2022-09-12T01:33:50.668Z,101238.31
2022-09-12T01:41:05.576Z,101232.22
2022-09-12T01:48:20.265Z,101231.66
2022-09-12T01:55:34.934Z,101220.44
2022-09-12T02:03:10.299Z,101216.09
2022-09-12T02:10:17.340Z,101223.59
2022-09-12T02:17:21.115Z,101233.97
2022-09-12T02:24:24.475Z,101227.97
2022-09-12T02:31:31.342Z,101224.59
2022-09-12T02:38:38.061Z,101224.91
2022-09-12T02:45:39.731Z,101225.00
2022-09-12T02:52:41.448Z,101226.00
2022-09-12T02:59:42.993Z,101222.72
2022-09-12T03:06:55.430Z,101232.13
2022-09-12T03:14:16.821Z,101238.84
2022-09-12T03:21:53.674Z,101225.56
2022-09-12T03:28:55.223Z,101222.19
2022-09-12T03:35:56.775Z,101226.97
2022-09-12T03:42:58.410Z,101232.78
2022-09-12T03:50:00.022Z,101236.56
2022-09-12T03:57:01.590Z,101235.13
2022-09-12T04:04:03.227Z,101239.88
2022-09-12T04:11:05.778Z,101242.66
2022-09-12T04:18:07.340Z,101242.00
2022-09-12T04:25:09.538Z,101240.28
2022-09-12T04:32:11.123Z,101234.28
2022-09-12T04:39:12.753Z,101236.19
2022-09-12T04:46:16.641Z,101236.28
2022-09-12T04:53:18.183Z,101237.34
2022-09-12T05:00:20.513Z,101240.06
2022-09-12T05:07:22.065Z,101235.53
2022-09-12T05:14:23.715Z,101237.19
2022-09-12T05:21:25.415Z,101243.25
2022-09-12T05:28:31.742Z,101252.38
2022-09-12T05:35:33.964Z,101255.66
2022-09-12T05:42:36.774Z,101262.53
2022-09-12T05:49:38.438Z,101264.63
2022-09-12T05:56:41.546Z,101267.63
2022-09-12T06:03:44.644Z,101268.84
2022-09-12T06:10:46.214Z,101267.19
2022-09-12T06:17:51.378Z,101278.50
2022-09-12T06:24:57.770Z,101285.81
2022-09-12T06:31:59.573Z,101290.25
2022-09-12T06:39:05.423Z,101291.38
2022-09-12T06:46:07.526Z,101290.22
2022-09-12T06:53:09.676Z,101299.09
2022-09-12T07:00:11.931Z,101287.69
2022-09-12T07:07:14.613Z,101295.94
2022-09-12T07:14:19.081Z,101287.22
2022-09-12T07:21:20.705Z,101287.47
2022-09-12T07:28:22.358Z,101290.91
2022-09-12T07:35:23.954Z,101286.91
2022-09-12T07:42:25.578Z,101280.59
2022-09-12T07:49:27.163Z,101280.72
2022-09-12T07:56:32.733Z,101274.44
2022-09-12T08:03:36.680Z,101280.25
2022-09-12T08:10:38.260Z,101280.16
2022-09-12T08:17:41.211Z,101277.81
2022-09-12T08:24:43.737Z,101283.03
2022-09-12T08:31:46.314Z,101282.09
2022-09-12T08:38:49.304Z,101291.25
2022-09-12T08:45:54.597Z,101277.09
2022-09-12T08:53:06.337Z,101288.09
2022-09-12T09:00:13.099Z,101277.47
2022-09-12T09:07:52.285Z,101268.19
2022-09-12T09:15:02.776Z,101273.38
2022-09-12T09:22:11.990Z,101263.97
2022-09-12T09:29:14.996Z,101258.31
2022-09-12T09:36:22.451Z,101265.41
2022-09-12T09:43:25.390Z,101255.59
2022-09-12T09:50:27.326Z,101256.06
2022-09-12T09:57:34.757Z,101251.41
2022-09-12T10:04:41.385Z,101242.69
2022-09-12T10:11:45.902Z,101237.16
2022-09-12T10:18:47.932Z,101236.56
2022-09-12T10:25:53.802Z,101225.69
2022-09-12T10:33:06.074Z,101223.34
2022-09-12T10:40:20.309Z,101223.56
2022-09-12T10:47:23.943Z,101226.38
2022-09-12T10:54:26.766Z,101215.75
2022-09-12T11:02:05.460Z,101214.34
2022-09-12T11:09:21.045Z,101208.47
2022-09-12T11:16:31.727Z,101203.47
2022-09-12T11:24:10.895Z,101203.78
2022-09-12T11:31:35.512Z,101210.97
2022-09-12T11:38:48.121Z,101215.72
2022-09-12T11:45:49.776Z,101198.78
2022-09-12T11:52:51.397Z,101187.50
2022-09-12T12:00:12.366Z,101190.59
2022-09-12T12:07:15.304Z,101170.75
2022-09-12T12:14:42.428Z,101160.72
2022-09-12T12:21:45.279Z,101156.66
2022-09-12T12:28:50.604Z,101153.59
2022-09-12T12:36:03.273Z,101141.47
2022-09-12T12:43:05.309Z,101146.81
2022-09-12T12:50:26.068Z,101154.41
2022-09-12T12:57:31.954Z,101161.06
2022-09-12T13:04:33.920Z,101144.91
2022-09-12T13:11:37.137Z,101144.75
2022-09-12T13:18:47.083Z,101137.09
2022-09-12T13:25:53.116Z,101137.19
2022-09-12T13:32:57.501Z,101124.03
2022-09-12T13:40:24.107Z,101116.09
2022-09-12T13:47:28.531Z,101114.28
2022-09-12T13:54:30.172Z,101104.81
2022-09-12T14:01:39.718Z,101105.03
2022-09-12T14:08:41.515Z,101105.56
2022-09-12T14:15:48.151Z,101105.03
2022-09-12T14:22:52.881Z,101105.72
2022-09-12T14:30:25.104Z,101098.31
2022-09-12T14:37:26.725Z,101103.75
2022-09-12T14:44:28.422Z,101096.34
2022-09-12T14:51:40.814Z,101089.72
2022-09-12T14:58:42.475Z,101087.06
2022-09-12T15:05:49.856Z,101072.84
2022-09-12T15:13:10.662Z,101069.25
2022-09-12T15:20:12.653Z,101075.16
2022-09-12T15:27:14.230Z,101077.09
2022-09-12T15:34:15.782Z,101071.22
2022-09-12T15:41:21.178Z,101060.50
2022-09-12T15:48:22.715Z,101061.09
2022-09-12T15:55:29.379Z,101064.47
2022-09-12T16:02:31.014Z,101060.91
2022-09-12T16:09:32.697Z,101048.41
2022-09-12T16:16:34.866Z,101045.38
2022-09-12T16:23:36.620Z,101042.41
2022-09-12T16:30:38.231Z,101031.63
2022-09-12T16:37:39.847Z,101030.34
2022-09-12T16:44:41.736Z,101029.25
2022-09-12T16:51:47.344Z,101018.47
2022-09-12T16:58:49.084Z,101022.00
2022-09-12T17:06:02.466Z,101005.06
2022-09-12T17:13:04.283Z,101003.53
2022-09-12T17:20:06.052Z,100994.34
2022-09-12T17:27:07.823Z,101000.47
2022-09-12T17:34:09.463Z,100993.16
2022-09-12T17:41:18.488Z,100990.34
2022-09-12T17:48:20.394Z,100998.03
2022-09-12T17:55:21.933Z,100998.34
2022-09-12T18:02:23.630Z,101016.97
2022-09-12T18:09:25.366Z,101010.94
2022-09-12T18:16:28.135Z,101017.88
2022-09-12T18:23:29.728Z,101010.66
2022-09-12T18:30:31.285Z,101005.19
2022-09-12T18:37:33.087Z,101009.94
2022-09-12T18:44:34.724Z,100999.84
2022-09-12T18:51:36.542Z,101000.53
2022-09-12T18:58:38.976Z,101000.09
2022-09-12T19:05:40.546Z,100991.03
2022-09-12T19:12:42.103Z,100974.75
2022-09-12T19:19:43.812Z,100973.16
2022-09-12T19:26:45.379Z,100972.97
2022-09-12T19:33:47.148Z,100971.38
2022-09-12T19:40:58.788Z,100960.69
2022-09-12T19:48:00.310Z,100965.63
2022-09-12T19:55:01.866Z,100962.13
2022-09-12T20:02:03.892Z,100952.31
2022-09-12T20:09:05.650Z,100943.94
2022-09-12T20:16:10.991Z,100947.47
2022-09-12T20:23:12.538Z,100933.91
2022-09-12T20:30:14.727Z,100939.22
2022-09-12T20:37:16.431Z,100931.69
2022-09-12T20:44:17.998Z,100932.34
2022-09-12T20:51:20.248Z,100933.13
2022-09-12T20:58:22.200Z,100931.19
2022-09-12T21:05:23.776Z,100913.47
2022-09-12T21:12:27.547Z,100916.63
2022-09-12T21:19:29.120Z,100920.25
2022-09-12T21:26:30.841Z,100917.34
2022-09-12T21:33:32.387Z,100906.22
2022-09-12T21:40:33.966Z,100904.75
2022-09-12T21:47:35.747Z,100900.81
2022-09-12T21:54:37.304Z,100895.03
2022-09-12T22:01:38.914Z,100892.59
2022-09-12T22:08:40.626Z,100876.59
2022-09-12T22:15:50.246Z,100876.09
2022-09-12T22:23:10.423Z,100868.44
2022-09-12T22:30:12.322Z,100859.44
2022-09-12T22:37:14.053Z,100846.47
2022-09-12T22:44:17.653Z,100833.63
2022-09-12T22:51:19.239Z,100828.34
2022-09-12T22:58:21.076Z,100811.66
2022-09-12T23:05:22.691Z,100802.38
2022-09-12T23:12:24.292Z,100793.00
2022-09-12T23:19:25.907Z,100795.13
2022-09-12T23:26:30.315Z,100790.78
2022-09-12T23:33:31.997Z,100795.00
2022-09-12T23:40:33.681Z,100796.63
2022-09-12T23:47:35.225Z,100771.66
2022-09-12T23:54:36.948Z,100778.56
